createdAt,value
2018-10-12T00:00:48.716Z,36.10
2018-10-12T00:03:20.816Z,31.33
2018-10-12T00:05:52.798Z,33.10
2018-10-12T00:08:24.570Z,32.05
2018-10-12T00:10:56.953Z,35.40
2018-10-12T00:13:28.913Z,29.77
2018-10-12T00:16:00.769Z,26.97
2018-10-12T00:18:32.709Z,32.57
2018-10-12T00:21:05.063Z,36.33
2018-10-12T00:23:39.840Z,31.07
2018-10-12T00:26:11.621Z,32.60
2018-10-12T00:28:43.570Z,30.37
2018-10-12T00:31:15.453Z,31.12
2018-10-12T00:33:47.420Z,30.77
2018-10-12T00:36:19.363Z,34.83
2018-10-12T00:38:51.405Z,32.55
2018-10-12T00:41:23.529Z,33.73
2018-10-12T00:43:55.792Z,37.50
2018-10-12T00:46:27.622Z,33.40
2018-10-12T00:49:01.424Z,28.43
2018-10-12T00:51:33.330Z,32.40
2018-10-12T00:54:05.760Z,35.15
2018-10-12T00:56:38.569Z,31.00
2018-10-12T00:59:10.835Z,31.80
2018-10-12T01:01:42.655Z,29.90
2018-10-12T01:04:14.496Z,26.23
2018-10-12T01:06:49.449Z,35.68
2018-10-12T01:09:21.702Z,32.83
2018-10-12T01:12:09.130Z,32.20
2018-10-12T01:14:41.537Z,32.20
2018-10-12T01:17:13.822Z,32.40
2018-10-12T01:19:46.284Z,34.08
2018-10-12T01:22:18.323Z,33.42
2018-10-12T01:24:50.170Z,35.00
2018-10-12T01:27:22.585Z,31.07
2018-10-12T01:29:54.848Z,31.87
2018-10-12T01:32:32.665Z,34.37
2018-10-12T01:35:04.688Z,37.37
2018-10-12T01:37:36.710Z,31.17
2018-10-12T01:40:12.904Z,31.52
2018-10-12T01:45:21.152Z,31.47
2018-10-12T01:47:54.159Z,29.45
2018-10-12T01:50:26.057Z,38.30
2018-10-12T01:52:57.949Z,34.83
2018-10-12T01:55:30.615Z,29.17
2018-10-12T01:58:02.733Z,32.28
2018-10-12T02:00:35.161Z,32.37
2018-10-12T02:03:08.081Z,30.32
2018-10-12T02:05:40.056Z,31.90
2018-10-12T02:08:12.188Z,28.23
2018-10-12T02:10:44.064Z,34.80
2018-10-12T02:13:16.312Z,34.30
2018-10-12T02:15:48.604Z,39.23
2018-10-12T02:18:21.840Z,34.17
2018-10-12T02:20:53.851Z,33.42
2018-10-12T02:23:25.528Z,32.20
2018-10-12T02:25:57.525Z,30.85
2018-10-12T02:28:29.556Z,29.73
2018-10-12T02:31:03.092Z,37.20
2018-10-12T02:33:35.392Z,32.87
2018-10-12T02:36:07.564Z,32.13
2018-10-12T02:38:40.081Z,29.93
2018-10-12T02:41:12.443Z,32.70
2018-10-12T02:43:44.378Z,30.53
2018-10-12T02:46:17.012Z,31.85
2018-10-12T02:48:49.726Z,30.53
2018-10-12T02:51:21.682Z,31.12
2018-10-12T02:53:54.418Z,31.23
2018-10-12T02:56:26.938Z,31.97
2018-10-12T02:58:58.761Z,28.63
2018-10-12T03:01:31.214Z,34.07
2018-10-12T03:06:39.496Z,36.17
2018-10-12T03:09:12.557Z,31.33
2018-10-12T03:11:44.301Z,34.97
2018-10-12T03:16:52.821Z,36.70
2018-10-12T03:19:24.804Z,37.30
2018-10-12T03:21:56.774Z,35.35
2018-10-12T03:24:29.164Z,36.47
2018-10-12T03:27:01.537Z,33.88
2018-10-12T03:29:33.648Z,36.10
2018-10-12T03:32:06.823Z,39.57
2018-10-12T03:34:38.755Z,31.57
2018-10-12T03:37:18.229Z,34.45
2018-10-12T03:39:50.239Z,30.20
2018-10-12T03:42:26.297Z,31.37
2018-10-12T03:44:58.236Z,31.12
2018-10-12T03:47:30.463Z,36.73
2018-10-12T03:50:02.664Z,26.73
2018-10-12T03:52:35.573Z,32.57
2018-10-12T03:55:07.762Z,28.90
2018-10-12T03:57:40.069Z,29.70
2018-10-12T04:00:12.146Z,31.05
2018-10-12T04:02:44.482Z,29.87
2018-10-12T04:05:16.690Z,37.75
2018-10-12T04:07:48.682Z,34.40
2018-10-12T04:10:21.355Z,30.53
2018-10-12T04:12:54.260Z,35.98
2018-10-12T04:15:27.223Z,29.63
2018-10-12T04:17:59.160Z,36.03
2018-10-12T04:20:30.839Z,32.60
2018-10-12T04:23:02.747Z,34.43
2018-10-12T04:25:34.809Z,36.17
2018-10-12T04:28:06.834Z,31.85
2018-10-12T04:30:38.895Z,35.13
2018-10-12T04:33:11.291Z,31.40
2018-10-12T04:35:43.560Z,35.30
2018-10-12T04:38:15.487Z,40.10
2018-10-12T04:41:06.901Z,32.98
2018-10-12T04:43:38.755Z,34.03
2018-10-12T04:46:14.211Z,32.40
2018-10-12T04:48:48.264Z,38.45
2018-10-12T04:51:31.902Z,33.67
2018-10-12T04:56:41.106Z,33.90
2018-10-12T04:59:13.171Z,36.98
2018-10-12T05:01:45.885Z,29.50
2018-10-12T05:04:17.790Z,31.02
2018-10-12T05:06:49.684Z,35.93
2018-10-12T05:09:21.800Z,33.90
2018-10-12T05:14:29.580Z,32.50
2018-10-12T05:17:01.476Z,29.45
2018-10-12T05:19:33.717Z,34.35
2018-10-12T05:22:06.520Z,36.02
2018-10-12T05:27:15.323Z,39.13
2018-10-12T05:29:47.626Z,33.75
2018-10-12T05:34:57.246Z,30.53
2018-10-12T05:37:29.081Z,34.00
2018-10-12T05:42:36.611Z,31.63
2018-10-12T05:45:08.271Z,31.82
2018-10-12T05:47:40.075Z,40.47
2018-10-12T05:52:48.711Z,38.13
2018-10-12T05:55:20.748Z,39.58
2018-10-12T05:57:52.701Z,35.23
2018-10-12T06:00:24.594Z,38.98
2018-10-12T06:02:56.721Z,40.83
2018-10-12T06:05:28.722Z,34.87
2018-10-12T06:08:00.660Z,38.50
2018-10-12T06:10:32.662Z,39.20
2018-10-12T06:13:04.373Z,41.87
2018-10-12T06:15:36.141Z,41.17
2018-10-12T06:18:10.433Z,31.27
2018-10-12T06:20:43.595Z,48.42
2018-10-12T06:23:20.311Z,34.90
2018-10-12T06:25:52.922Z,38.77
2018-10-12T06:28:24.689Z,37.85
2018-10-12T06:30:57.208Z,43.50
2018-10-12T06:33:30.096Z,35.17
2018-10-12T06:36:02.534Z,45.48
2018-10-12T06:38:34.629Z,37.20
2018-10-12T06:41:06.460Z,37.15
2018-10-12T06:43:38.448Z,38.27
2018-10-12T06:46:10.188Z,30.73
2018-10-12T06:48:42.593Z,35.03
2018-10-12T06:51:14.490Z,34.15
2018-10-12T06:53:46.678Z,41.85
2018-10-12T06:56:18.834Z,39.03
2018-10-12T06:58:50.862Z,31.80
2018-10-12T07:01:23.545Z,39.05
2018-10-12T07:03:56.125Z,37.47
2018-10-12T07:06:28.515Z,35.52
2018-10-12T07:09:03.910Z,29.83
2018-10-12T07:11:36.075Z,31.40
2018-10-12T07:14:07.868Z,31.93
2018-10-12T07:16:42.431Z,44.30
2018-10-12T07:19:14.545Z,32.38
2018-10-12T07:21:46.338Z,35.83
2018-10-12T07:24:18.104Z,37.37
2018-10-12T07:26:49.914Z,38.30
2018-10-12T07:29:21.646Z,40.37
2018-10-12T07:31:53.892Z,35.47
2018-10-12T07:34:25.577Z,37.93
2018-10-12T07:36:58.299Z,30.00
2018-10-12T07:39:30.107Z,41.23
2018-10-12T07:42:01.928Z,34.48
2018-10-12T07:44:34.834Z,34.70
2018-10-12T07:47:06.942Z,42.53
2018-10-12T07:49:38.974Z,47.47
2018-10-12T07:52:10.969Z,39.43
2018-10-12T07:54:43.079Z,30.65
2018-10-12T07:57:16.139Z,38.57
2018-10-12T07:59:47.979Z,36.17
2018-10-12T08:02:19.683Z,37.45
2018-10-12T08:04:51.491Z,36.88
2018-10-12T08:07:23.219Z,44.03
2018-10-12T08:09:55.673Z,47.33
2018-10-12T08:12:28.019Z,41.77
2018-10-12T08:14:59.953Z,43.95
2018-10-12T08:17:32.253Z,39.55
2018-10-12T08:20:06.053Z,42.53
2018-10-12T08:22:38.771Z,43.10
2018-10-12T08:25:11.611Z,41.83
2018-10-12T08:30:20.518Z,50.53
2018-10-12T08:32:53.120Z,45.12
2018-10-12T08:35:25.720Z,47.07
2018-10-12T08:37:57.879Z,48.92
2018-10-12T08:40:29.488Z,52.07
2018-10-12T08:43:01.559Z,54.45
2018-10-12T08:45:33.323Z,47.07
2018-10-12T08:48:05.116Z,46.40
2018-10-12T08:50:40.710Z,49.90
2018-10-12T08:53:16.975Z,52.15
2018-10-12T08:55:49.346Z,50.40
2018-10-12T08:58:21.319Z,53.85
2018-10-12T09:00:53.121Z,56.65
2018-10-12T09:03:24.847Z,49.70
2018-10-12T09:05:56.747Z,52.50
2018-10-12T09:08:28.461Z,54.83
2018-10-12T09:11:00.162Z,50.10
2018-10-12T09:13:32.538Z,43.83
2018-10-12T09:16:04.166Z,56.67
2018-10-12T09:18:35.782Z,62.30
2018-10-12T09:21:08.171Z,47.70
2018-10-12T09:23:40.111Z,59.03
2018-10-12T09:26:12.326Z,55.73
2018-10-12T09:28:43.966Z,56.40
2018-10-12T09:31:17.130Z,42.23
2018-10-12T09:33:48.738Z,50.80
2018-10-12T09:36:20.990Z,61.67
2018-10-12T09:38:53.241Z,58.35
2018-10-12T09:41:26.749Z,52.60
2018-10-12T09:43:58.610Z,47.20
2018-10-12T09:46:30.402Z,51.13
2018-10-12T09:49:02.354Z,49.40
2018-10-12T09:51:34.340Z,42.07
2018-10-12T09:54:06.516Z,36.03
2018-10-12T09:56:39.293Z,55.88
2018-10-12T09:59:10.987Z,44.75
2018-10-12T10:01:48.013Z,45.23
2018-10-12T10:04:35.382Z,44.45
2018-10-12T10:07:07.055Z,56.20
2018-10-12T10:09:39.714Z,41.87
2018-10-12T10:12:12.260Z,39.17
2018-10-12T10:14:44.016Z,36.00
2018-10-12T10:17:15.745Z,37.47
2018-10-12T10:19:47.621Z,40.17
2018-10-12T10:22:19.741Z,39.13
2018-10-12T10:27:27.093Z,32.87
2018-10-12T10:29:59.445Z,36.30
2018-10-12T10:32:31.396Z,31.13
2018-10-12T10:35:02.783Z,34.18
2018-10-12T10:37:34.776Z,29.23
2018-10-12T10:40:07.255Z,26.57
2018-10-12T10:42:46.963Z,32.70
2018-10-12T10:45:18.407Z,24.35
2018-10-12T10:47:51.327Z,23.17
2018-10-12T10:52:58.748Z,27.73
2018-10-12T10:55:30.166Z,25.27
2018-10-12T10:58:02.311Z,26.73
2018-10-12T11:00:34.153Z,33.60
2018-10-12T11:03:06.679Z,26.23
2018-10-12T11:05:38.067Z,32.43
2018-10-12T11:08:10.441Z,33.85
2018-10-12T11:10:42.159Z,35.40
2018-10-12T11:13:14.240Z,36.80
2018-10-12T11:15:46.318Z,45.40
2018-10-12T11:18:18.217Z,44.60
2018-10-12T11:20:50.241Z,48.77
2018-10-12T11:23:22.352Z,42.13
2018-10-12T11:25:54.249Z,41.57
2018-10-12T11:28:26.500Z,40.50
2018-10-12T11:30:58.256Z,53.92
2018-10-12T11:33:31.683Z,35.97
2018-10-12T11:36:03.446Z,45.40
2018-10-12T11:38:35.318Z,47.20
2018-10-12T11:41:07.383Z,40.63
2018-10-12T11:43:40.922Z,41.87
2018-10-12T11:46:12.630Z,41.27
2018-10-12T11:51:20.508Z,38.23
2018-10-12T11:53:52.014Z,41.53
2018-10-12T11:56:24.107Z,37.00
2018-10-12T11:58:55.651Z,28.83
2018-10-12T12:01:27.621Z,34.90
2018-10-12T12:03:59.453Z,41.10
2018-10-12T12:06:31.444Z,36.33
2018-10-12T12:09:03.525Z,29.00
2018-10-12T12:11:35.796Z,26.87
2018-10-12T12:14:07.603Z,30.97
2018-10-12T12:16:43.100Z,25.80
2018-10-12T12:19:18.768Z,24.87
2018-10-12T12:21:50.218Z,20.70
2018-10-12T12:24:26.239Z,18.17
2018-10-12T12:26:58.149Z,16.05
2018-10-12T12:29:29.977Z,17.63
2018-10-12T12:32:01.854Z,14.70
2018-10-12T12:34:33.911Z,20.93
2018-10-12T12:37:06.478Z,20.65
2018-10-12T12:39:38.546Z,20.43
2018-10-12T12:42:10.439Z,18.53
2018-10-12T12:44:42.076Z,16.77
2018-10-12T12:47:13.534Z,23.10
2018-10-12T12:49:45.056Z,15.05
2018-10-12T12:52:16.922Z,25.68
2018-10-12T12:54:49.143Z,24.82
2018-10-12T12:57:21.221Z,17.02
2018-10-12T12:59:52.785Z,15.85
2018-10-12T13:02:27.195Z,14.75
2018-10-12T13:04:58.717Z,17.03
2018-10-12T13:07:30.758Z,14.65
2018-10-12T13:10:02.680Z,15.83
2018-10-12T13:12:34.265Z,19.77
2018-10-12T13:15:06.412Z,13.40
2018-10-12T13:17:38.061Z,13.98
2018-10-12T13:20:09.850Z,12.35
2018-10-12T13:22:41.400Z,12.82
2018-10-12T13:25:13.397Z,14.63
2018-10-12T13:27:44.955Z,13.50
2018-10-12T13:30:16.589Z,13.35
2018-10-12T13:32:48.257Z,12.37
2018-10-12T13:35:20.230Z,11.97
2018-10-12T13:37:51.843Z,12.03
2018-10-12T13:40:23.771Z,16.00
2018-10-12T13:42:55.914Z,13.73
2018-10-12T13:45:27.440Z,12.33
2018-10-12T13:48:05.843Z,17.07
2018-10-12T13:50:37.563Z,12.13
2018-10-12T13:53:09.630Z,18.33
2018-10-12T13:55:47.712Z,11.12
2018-10-12T14:00:55.249Z,10.53
2018-10-12T14:03:26.787Z,12.05
2018-10-12T14:05:58.463Z,11.35
2018-10-12T14:08:30.052Z,11.53
2018-10-12T14:11:01.842Z,12.35
2018-10-12T14:13:33.764Z,14.80
2018-10-12T14:16:06.478Z,10.80
2018-10-12T14:18:38.023Z,10.10
2018-10-12T14:21:09.643Z,9.67
2018-10-12T14:23:41.191Z,10.03
2018-10-12T14:26:13.500Z,13.43
2018-10-12T14:28:45.655Z,15.70
2018-10-12T14:31:17.900Z,13.60
2018-10-12T14:33:49.562Z,20.53
2018-10-12T14:36:21.212Z,18.17
2018-10-12T14:38:54.088Z,10.95
2018-10-12T14:41:25.578Z,13.98
2018-10-12T14:43:57.397Z,16.12
2018-10-12T14:46:29.597Z,9.13
2018-10-12T14:49:01.161Z,13.45
2018-10-12T14:51:33.124Z,16.02
2018-10-12T14:54:05.658Z,19.82
2018-10-12T14:56:37.308Z,19.40
2018-10-12T14:59:08.987Z,13.47
2018-10-12T15:01:40.835Z,18.45
2018-10-12T15:04:13.002Z,13.22
2018-10-12T15:06:44.813Z,15.00
2018-10-12T15:09:16.624Z,12.60
2018-10-12T15:11:48.959Z,11.73
2018-10-12T15:14:35.962Z,18.57
2018-10-12T15:17:08.378Z,14.25
2018-10-12T15:19:41.250Z,17.32
2018-10-12T15:22:13.612Z,19.98
2018-10-12T15:24:45.449Z,17.57
2018-10-12T15:27:17.593Z,29.82
2018-10-12T15:29:49.685Z,22.65
2018-10-12T15:36:23.224Z,15.03
2018-10-12T15:38:56.170Z,16.80
2018-10-12T15:41:28.273Z,20.43
2018-10-12T15:44:00.059Z,13.07
2018-10-12T15:46:34.396Z,15.32
2018-10-12T15:51:48.098Z,16.27
2018-10-12T15:54:20.555Z,13.17
2018-10-12T15:59:29.321Z,15.43
2018-10-12T16:02:00.880Z,15.27
2018-10-12T16:04:32.625Z,16.17
2018-10-12T16:07:05.275Z,16.30
2018-10-12T16:09:37.058Z,19.07
2018-10-12T16:12:09.228Z,22.62
2018-10-12T16:14:40.909Z,18.90
2018-10-12T16:17:12.935Z,22.80
2018-10-12T16:19:44.606Z,21.65
2018-10-12T16:22:16.358Z,21.60
2018-10-12T16:25:05.006Z,20.88
2018-10-12T16:27:36.965Z,25.40
2018-10-12T16:30:09.207Z,17.55
2018-10-12T16:32:41.006Z,23.87
2018-10-12T16:35:13.826Z,19.70
2018-10-12T16:37:52.851Z,19.07
2018-10-12T16:40:25.027Z,21.12
2018-10-12T16:42:56.915Z,24.82
2018-10-12T16:45:28.820Z,28.42
2018-10-12T16:48:00.733Z,21.90
2018-10-12T16:50:33.052Z,26.37
2018-10-12T16:53:04.806Z,24.45
2018-10-12T16:55:37.032Z,34.10
2018-10-12T16:58:09.705Z,33.80
2018-10-12T17:00:41.500Z,46.50
2018-10-12T17:03:13.893Z,43.38
2018-10-12T17:05:45.660Z,40.50
2018-10-12T17:08:17.688Z,41.77
2018-10-12T17:10:49.734Z,39.87
2018-10-12T17:13:21.506Z,40.35
2018-10-12T17:15:53.453Z,44.70
2018-10-12T17:18:25.544Z,41.47
2018-10-12T17:20:57.657Z,38.70
2018-10-12T17:23:30.194Z,38.70
2018-10-12T17:26:02.296Z,39.43
2018-10-12T17:28:35.497Z,44.80
2018-10-12T17:33:45.027Z,40.50
2018-10-12T17:36:17.861Z,36.73
2018-10-12T17:38:49.831Z,36.38
2018-10-12T17:41:23.191Z,39.73
2018-10-12T17:43:55.883Z,30.33
2018-10-12T17:46:28.816Z,31.23
2018-10-12T17:49:01.461Z,30.20
2018-10-12T17:54:47.694Z,38.93
2018-10-12T17:57:23.000Z,33.30
2018-10-12T17:59:55.128Z,44.00
2018-10-12T18:02:27.199Z,53.63
2018-10-12T18:04:59.264Z,48.13
2018-10-12T18:07:31.594Z,47.35
2018-10-12T18:10:03.809Z,43.02
2018-10-12T18:15:13.663Z,37.97
2018-10-12T18:17:45.863Z,35.27
2018-10-12T18:20:18.073Z,34.43
2018-10-12T18:22:50.175Z,39.00
2018-10-12T18:25:22.159Z,35.83
2018-10-12T18:27:54.068Z,36.57
2018-10-12T18:30:26.238Z,35.57
2018-10-12T18:32:58.938Z,42.30
2018-10-12T18:35:32.024Z,35.60
2018-10-12T18:38:04.208Z,35.20
2018-10-12T18:40:36.555Z,36.80
2018-10-12T18:43:08.475Z,30.17
2018-10-12T18:45:41.076Z,36.40
2018-10-12T18:48:13.382Z,44.83
2018-10-12T18:50:46.676Z,37.43
2018-10-12T18:53:19.198Z,49.70
2018-10-12T18:55:51.303Z,43.38
2018-10-12T19:01:04.817Z,41.70
2018-10-12T19:06:14.327Z,33.10
2018-10-12T19:08:47.212Z,35.35
2018-10-12T19:13:55.138Z,33.23
2018-10-12T19:16:28.120Z,35.30
2018-10-12T19:19:00.847Z,36.42
2018-10-12T19:21:32.475Z,40.43
2018-10-12T19:24:05.668Z,41.17
2018-10-12T19:26:38.968Z,34.75
2018-10-12T19:29:11.141Z,33.50
2018-10-12T19:31:42.957Z,31.07
2018-10-12T19:34:15.370Z,35.15
2018-10-12T19:36:47.430Z,32.58
2018-10-12T19:39:19.706Z,35.80
2018-10-12T19:41:51.728Z,31.77
2018-10-12T19:47:00.052Z,35.67
2018-10-12T19:52:09.223Z,28.23
2018-10-12T19:54:50.797Z,30.72
2018-10-12T19:57:23.709Z,34.13
2018-10-12T19:59:56.966Z,36.67
2018-10-12T20:02:29.177Z,31.67
2018-10-12T20:05:02.129Z,34.83
2018-10-12T20:07:34.655Z,36.00
2018-10-12T20:10:09.187Z,33.38
2018-10-12T20:12:41.552Z,34.65
2018-10-12T20:15:14.504Z,36.63
2018-10-12T20:17:46.852Z,37.40
2018-10-12T20:20:20.256Z,36.17
2018-10-12T20:22:53.200Z,35.25
2018-10-12T20:25:26.273Z,38.58
2018-10-12T20:27:59.067Z,37.88
2018-10-12T20:30:31.443Z,44.80
2018-10-12T20:33:03.501Z,34.55
2018-10-12T20:35:35.989Z,39.83
2018-10-12T20:38:08.294Z,41.77
2018-10-12T20:40:41.208Z,40.97
2018-10-12T20:43:13.846Z,40.92
2018-10-12T20:45:46.251Z,44.03
2018-10-12T20:48:18.837Z,35.53
2018-10-12T20:50:51.081Z,32.75
2018-10-12T20:53:22.902Z,31.33
2018-10-12T20:55:55.758Z,38.77
2018-10-12T20:58:27.760Z,33.85
2018-10-12T21:01:00.319Z,37.17
2018-10-12T21:03:32.801Z,29.00
2018-10-12T21:06:05.063Z,40.75
2018-10-12T21:08:37.287Z,29.92
2018-10-12T21:11:09.545Z,34.83
2018-10-12T21:13:42.126Z,36.30
2018-10-12T21:16:14.561Z,33.67
2018-10-12T21:18:46.966Z,36.70
2018-10-12T21:21:19.014Z,36.17
2018-10-12T21:23:51.286Z,29.63
2018-10-12T21:26:23.729Z,35.83
2018-10-12T21:28:55.841Z,38.40
2018-10-12T21:31:28.194Z,35.23
2018-10-12T21:34:00.388Z,29.23
2018-10-12T21:36:32.556Z,31.37
2018-10-12T21:39:05.785Z,36.43
2018-10-12T21:41:37.807Z,41.48
2018-10-12T21:44:10.255Z,40.48
2018-10-12T21:46:43.205Z,35.92
2018-10-12T21:49:15.380Z,37.13
2018-10-12T21:54:24.472Z,35.63
2018-10-12T21:56:56.623Z,39.05
2018-10-12T21:59:29.264Z,42.60
2018-10-12T22:02:01.871Z,44.33
2018-10-12T22:04:34.849Z,46.63
2018-10-12T22:07:06.966Z,45.80
2018-10-12T22:09:39.380Z,47.90
2018-10-12T22:12:11.724Z,44.83
2018-10-12T22:14:43.799Z,45.45
2018-10-12T22:17:15.766Z,36.83
2018-10-12T22:19:48.155Z,37.35
2018-10-12T22:22:20.116Z,46.30
2018-10-12T22:24:52.432Z,37.75
2018-10-12T22:27:24.532Z,39.03
2018-10-12T22:29:56.187Z,36.68
2018-10-12T22:32:29.038Z,40.07
2018-10-12T22:35:01.200Z,37.23
2018-10-12T22:37:33.178Z,37.10
2018-10-12T22:40:05.607Z,41.30
2018-10-12T22:42:37.775Z,41.67
2018-10-12T22:47:48.513Z,34.30
2018-10-12T22:50:20.749Z,41.90
2018-10-12T22:52:52.833Z,38.30
2018-10-12T22:55:25.308Z,38.55
2018-10-12T22:58:01.774Z,35.40
2018-10-12T23:00:34.891Z,45.00
2018-10-12T23:03:08.989Z,42.32
2018-10-12T23:05:40.969Z,33.55
2018-10-12T23:08:13.815Z,33.30
2018-10-12T23:10:46.819Z,40.48
2018-10-12T23:13:19.100Z,35.47
2018-10-12T23:15:50.965Z,36.05
2018-10-12T23:18:23.208Z,39.23
2018-10-12T23:20:55.288Z,32.10
2018-10-12T23:23:27.893Z,42.93
2018-10-12T23:25:59.747Z,42.80
2018-10-12T23:28:32.510Z,38.10
2018-10-12T23:31:04.575Z,36.97
2018-10-12T23:34:06.748Z,39.97
2018-10-12T23:36:38.953Z,39.43
2018-10-12T23:39:11.291Z,41.23
2018-10-12T23:41:43.399Z,44.27
2018-10-12T23:44:15.391Z,42.67
2018-10-12T23:46:47.741Z,39.03
2018-10-12T23:49:19.886Z,46.02
2018-10-12T23:51:53.242Z,44.98
2018-10-12T23:57:01.910Z,43.43
2018-10-12T23:59:34.181Z,34.97
